createdAt,value
2023-06-21T14:04:16.766Z,70.43
2023-06-21T14:06:43.727Z,73.40
2023-06-21T14:09:10.600Z,68.32
2023-06-21T14:11:37.413Z,42.90
2023-06-21T14:14:06.619Z,49.10
2023-06-21T14:16:33.560Z,29.08
2023-06-21T14:19:00.580Z,20.63
2023-06-21T14:21:27.621Z,18.38
2023-06-21T14:23:54.627Z,15.70
2023-06-21T14:26:21.963Z,17.27
2023-06-21T14:28:48.855Z,17.38
2023-06-21T14:31:15.763Z,17.80
2023-06-21T14:33:42.689Z,15.65
2023-06-21T14:36:09.746Z,15.18
2023-06-21T14:38:39.715Z,17.02
2023-06-21T14:41:06.616Z,18.42
2023-06-21T14:43:33.491Z,17.83
2023-06-21T14:46:00.335Z,18.55
2023-06-21T14:48:27.283Z,18.75
2023-06-21T14:50:54.302Z,17.00
2023-06-21T14:53:21.658Z,19.30
2023-06-21T14:55:49.003Z,17.85
2023-06-21T14:58:15.941Z,20.48
2023-06-21T15:00:42.957Z,18.35
2023-06-21T15:03:09.884Z,17.67
2023-06-21T15:05:36.868Z,18.17
2023-06-21T15:08:03.786Z,16.55
2023-06-21T15:10:31.034Z,17.63
2023-06-21T15:13:02.237Z,16.52
2023-06-21T15:15:30.230Z,15.32
2023-06-21T15:17:57.557Z,14.98
2023-06-21T15:20:24.628Z,13.15
2023-06-21T15:22:51.571Z,13.18
2023-06-21T15:25:18.579Z,12.27
2023-06-21T15:27:45.493Z,12.65
2023-06-21T15:30:12.880Z,11.70
2023-06-21T15:32:39.908Z,13.15
2023-06-21T15:35:07.221Z,14.05
2023-06-21T15:37:34.116Z,13.00
2023-06-21T15:40:01.061Z,11.75
2023-06-21T15:42:28.105Z,13.65
2023-06-21T15:44:55.530Z,14.50
2023-06-21T15:47:22.470Z,14.90
2023-06-21T15:49:49.436Z,14.13
2023-06-21T15:52:16.604Z,15.20
2023-06-21T15:54:43.525Z,15.02
2023-06-21T15:57:10.405Z,15.75
2023-06-21T15:59:37.981Z,14.05
2023-06-21T16:02:05.239Z,12.48
2023-06-21T16:04:32.174Z,10.98
2023-06-21T16:07:03.515Z,9.80
2023-06-21T16:09:30.446Z,9.85
2023-06-21T16:11:58.240Z,10.75
2023-06-21T16:14:26.174Z,10.18
2023-06-21T16:16:53.066Z,8.60
2023-06-21T16:19:20.781Z,10.95
2023-06-21T16:21:48.104Z,9.27
2023-06-21T16:24:16.721Z,6.60
2023-06-21T16:26:43.617Z,5.57
2023-06-21T16:29:10.443Z,5.72
2023-06-21T16:31:39.275Z,6.00
2023-06-21T16:34:06.546Z,6.28
2023-06-21T16:36:33.403Z,6.15
2023-06-21T16:39:00.449Z,6.15
2023-06-21T16:41:28.271Z,6.07
2023-06-21T16:43:55.093Z,6.00
2023-06-21T16:46:21.970Z,6.63
2023-06-21T16:48:49.574Z,6.43
2023-06-21T16:51:16.822Z,6.95
2023-06-21T16:53:43.692Z,7.10
2023-06-21T16:56:10.945Z,7.25
2023-06-21T16:58:37.784Z,7.68
2023-06-21T17:01:04.869Z,8.13
2023-06-21T17:03:32.005Z,9.20
2023-06-21T17:05:58.937Z,10.18
2023-06-21T17:08:28.078Z,10.00
2023-06-21T17:10:55.264Z,10.13
2023-06-21T17:13:22.185Z,12.05
2023-06-21T17:15:49.062Z,10.40
2023-06-21T17:18:15.978Z,12.32
2023-06-21T17:20:42.866Z,12.85
2023-06-21T17:23:09.789Z,13.68
2023-06-21T17:25:36.704Z,11.85
2023-06-21T17:28:03.715Z,14.30
2023-06-21T17:30:30.558Z,16.00
2023-06-21T17:32:57.502Z,14.02
2023-06-21T17:35:24.402Z,14.82
2023-06-21T17:37:51.878Z,15.85
2023-06-21T17:40:18.810Z,14.68
2023-06-21T17:42:45.723Z,14.52
2023-06-21T17:45:12.708Z,15.32
2023-06-21T17:47:39.929Z,15.07
2023-06-21T17:50:08.029Z,13.82
2023-06-21T17:52:34.930Z,16.15
2023-06-21T17:55:01.854Z,14.05
2023-06-21T17:57:30.178Z,14.98
2023-06-21T17:59:57.220Z,15.93
2023-06-21T18:02:24.628Z,16.95
2023-06-21T18:04:51.556Z,73.50
2023-06-21T18:07:18.697Z,24.65
2023-06-21T18:09:45.498Z,15.80
2023-06-21T18:12:12.986Z,15.73
2023-06-21T18:14:41.575Z,16.15
2023-06-21T18:17:08.565Z,15.98
2023-06-21T18:19:35.493Z,17.38
2023-06-21T18:22:12.748Z,17.10
2023-06-21T18:24:40.805Z,16.70
2023-06-21T18:27:08.467Z,15.48
2023-06-21T18:29:35.376Z,16.80
2023-06-21T18:32:03.229Z,15.32
2023-06-21T18:34:30.240Z,16.48
2023-06-21T18:36:57.093Z,15.43
2023-06-21T18:39:24.018Z,17.15
2023-06-21T18:41:51.212Z,15.63
2023-06-21T18:44:18.133Z,15.13
2023-06-21T18:46:45.005Z,14.80
2023-06-21T18:49:11.870Z,15.90
2023-06-21T18:51:38.820Z,15.55
2023-06-21T18:54:05.696Z,16.70
2023-06-21T18:56:32.582Z,17.08
2023-06-21T18:58:59.486Z,18.58
2023-06-21T19:01:26.408Z,16.50
2023-06-21T19:03:57.673Z,16.85
2023-06-21T19:06:27.548Z,16.88
2023-06-21T19:08:54.869Z,16.15
2023-06-21T19:11:22.095Z,17.45
2023-06-21T19:13:49.244Z,16.58
2023-06-21T19:16:18.316Z,17.02
2023-06-21T19:18:45.144Z,16.38
2023-06-21T19:21:12.038Z,16.63
2023-06-21T19:23:39.013Z,16.92
2023-06-21T19:26:05.970Z,16.75
2023-06-21T19:28:32.890Z,16.10
2023-06-21T19:30:59.884Z,16.95
2023-06-21T19:33:26.850Z,17.55
2023-06-21T19:35:53.722Z,16.40
2023-06-21T19:38:20.571Z,16.25
2023-06-21T19:40:47.910Z,17.05
2023-06-21T19:43:15.236Z,15.68
2023-06-21T19:45:42.206Z,16.98
2023-06-21T19:48:10.474Z,15.45
2023-06-21T19:50:37.416Z,16.15
2023-06-21T19:53:04.907Z,15.88
2023-06-21T19:55:31.788Z,16.88
2023-06-21T19:57:58.772Z,16.45
2023-06-21T20:00:25.887Z,16.90
2023-06-21T20:02:54.970Z,16.55
2023-06-21T20:05:21.957Z,16.05
2023-06-21T20:07:48.927Z,15.40
2023-06-21T20:10:15.819Z,15.43
2023-06-21T20:12:42.708Z,16.00
2023-06-21T20:15:10.090Z,16.20
2023-06-21T20:17:38.180Z,15.43
2023-06-21T20:20:09.463Z,15.80
2023-06-21T20:22:36.374Z,15.80
2023-06-21T20:25:03.700Z,15.65
2023-06-21T20:27:30.687Z,16.67
2023-06-21T20:29:57.626Z,16.25
2023-06-21T20:32:24.632Z,15.13
2023-06-21T20:34:52.388Z,15.07
2023-06-21T20:37:19.475Z,15.07
2023-06-21T20:39:48.411Z,16.15
2023-06-21T20:42:15.602Z,17.75
2023-06-21T20:44:42.510Z,17.67
2023-06-21T20:47:09.774Z,17.85
2023-06-21T20:49:36.685Z,17.33
2023-06-21T20:52:03.894Z,17.58
2023-06-21T20:54:32.618Z,17.73
2023-06-21T20:56:59.561Z,16.92
2023-06-21T20:59:26.506Z,16.88
2023-06-21T21:01:53.951Z,18.08
2023-06-21T21:04:21.147Z,19.02
2023-06-21T21:06:48.138Z,18.92
2023-06-21T21:09:15.130Z,18.27
2023-06-21T21:11:42.167Z,18.20
2023-06-21T21:14:09.143Z,17.27
2023-06-21T21:16:38.098Z,18.30
2023-06-21T21:19:05.233Z,18.30
2023-06-21T21:21:32.219Z,18.15
2023-06-21T21:23:59.396Z,19.38
2023-06-21T21:26:26.297Z,19.95
2023-06-21T21:28:53.120Z,20.00
2023-06-21T21:31:20.110Z,20.45
2023-06-21T21:33:47.065Z,19.90
2023-06-21T21:36:13.928Z,18.85
2023-06-21T21:38:40.845Z,19.00
2023-06-21T21:41:07.685Z,19.55
2023-06-21T21:43:34.505Z,21.58
2023-06-21T21:46:01.468Z,20.80
2023-06-21T21:48:28.353Z,22.48
2023-06-21T21:50:55.220Z,21.50
2023-06-21T21:53:22.146Z,23.25
2023-06-21T21:55:50.793Z,22.13
2023-06-21T21:58:17.691Z,21.67
2023-06-21T22:00:46.199Z,20.30
2023-06-21T22:03:13.773Z,20.10
2023-06-21T22:05:40.766Z,18.52
2023-06-21T22:08:07.617Z,16.83
2023-06-21T22:10:39.111Z,18.98
2023-06-21T22:13:10.932Z,19.17
2023-06-21T22:15:50.848Z,21.88
2023-06-21T22:18:25.820Z,21.15
2023-06-21T22:20:54.058Z,19.98
2023-06-21T22:23:20.977Z,18.77
2023-06-21T22:25:47.870Z,13.98
2023-06-21T22:28:14.801Z,8.48
2023-06-21T22:30:42.020Z,7.88
2023-06-21T22:33:09.036Z,7.40
2023-06-21T22:35:35.934Z,10.18
2023-06-21T22:38:03.001Z,15.00
2023-06-21T22:40:30.091Z,15.95
2023-06-21T22:42:59.988Z,18.60
2023-06-21T22:45:26.932Z,17.58
2023-06-21T22:47:53.813Z,17.35
2023-06-21T22:50:20.736Z,15.02
2023-06-21T22:52:52.729Z,9.98
2023-06-21T22:55:20.334Z,7.90
2023-06-21T22:57:47.178Z,8.25
2023-06-21T23:00:14.684Z,15.23
2023-06-21T23:02:41.711Z,14.80
2023-06-21T23:05:09.285Z,15.23
2023-06-21T23:07:36.221Z,15.10
2023-06-21T23:10:09.644Z,16.55
2023-06-21T23:12:48.344Z,17.55
2023-06-21T23:15:18.592Z,15.32
2023-06-21T23:17:46.498Z,6.25
2023-06-21T23:20:14.555Z,7.20
2023-06-21T23:22:43.960Z,10.52
2023-06-21T23:25:12.368Z,11.90
2023-06-21T23:27:39.321Z,12.27
2023-06-21T23:30:15.199Z,11.35
2023-06-21T23:32:47.651Z,7.97
2023-06-21T23:35:14.540Z,16.38
2023-06-21T23:37:41.461Z,21.38
2023-06-21T23:40:12.069Z,20.10
2023-06-21T23:42:39.687Z,14.63
2023-06-21T23:45:11.640Z,6.82
2023-06-21T23:47:38.896Z,8.60
2023-06-21T23:50:07.311Z,10.98
2023-06-21T23:52:34.657Z,11.07
2023-06-21T23:55:01.679Z,19.10
2023-06-21T23:57:28.609Z,20.45
2023-06-21T23:59:57.059Z,8.88
